Saturday, April 19, 2014
17:09 UTC
  |  Log In   |  Register Free
Airport Search:

John F Kennedy Memorial Airport
(KASX)

John F Kennedy Memorial Airport Diagram
No Airport Diagram Available

FAA data valid effective April 3, 2014 until May 29, 2014 (unless otherwise noted).

 
 
 
 
 
 
 
 
 
 
 
 
 
 

Current Aviation Weather for John F Kennedy Memorial Airport (KASX)

The most recent METAR observation for KASX was updated at: 1653 UTC
METAR Summary (Translated METAR)
KASX
191653Z AUTO VRB06KT 10SM OVC065 07/M04 A3011 RMK AO2 SLP207 T00671044
KIWD
(32.5 nm SE from KASX)
191655Z AUTO 15016G23KT 10SM OVC065 07/M05 A3007 RMK AO1
TAF Summary (Translated TAF)
KIWD
(32.5 nm SE from KASX)
191136Z 1912/2012 15011KT P6SM BKN100 WS010/16035KT FM191500 16016G25KT P6SM -SHRA OVC060 FM191700 18017G28KT P6SM BKN060 FM192200 18014G21KT 6SM -SHRA OVC040 FM200400 19010KT 5SM BR BKN035 AMD LTD TO CLD VIS AND WIND
KHYR
(38.2 nm SW from KASX)
191639Z 1917/2012 15011G18KT P6SM OVC060 FM191900 21014G22KT P6SM VCSH SCT035 OVC060 FM192100 22012G22KT P6SM -SHRA BKN035 TEMPO 1921/1924 3SM -SHRA BR BKN035 FM200100 20006KT P6SM OVC040
  Airport Weather Conditions for KASX

 Current Weather at ASX
42° F
Overcast
Variable winds at 5.8 mph
ASX NOAA Radar

Pressure: 30.15 in
Humidity: 49%
Wind: Variable at 5.8 MPH (5 KT)
Dew Point: 24.1°F
Visibility: 10.00 mi


Airport Weather Forecast for KASX

Translated METAR and TAF for KASX
Translated METAR for KASX (1709 UTC 19 April 2014)
found at http://aviationweather.gov/adds/metars/
 
METAR text: KASX 191653Z AUTO VRB06KT 10SM OVC065 07/M04 A3011 RMK AO2 SLP207 T00671044
Conditions at: KASX (ASHLAND , WI, US) observed 1653 UTC 19 April 2014
Temperature: 6.7°C (44°F)
Dewpoint: -4.4°C (24°F) [RH = 45%]
Pressure (altimeter): 30.11 inches Hg (1019.7 mb)
[Sea-level pressure: 1020.7 mb]
Winds: variable direction winds at 7 MPH (6 knots; 3.1 m/s)
Visibility: 10 or more miles (16+ km)
Ceiling: 6500 feet AGL
Clouds: overcast cloud deck at 6500 feet AGL
Weather: automated observation with no human augmentation;
there may or may not be significant weather present at this time
Translated TAF for KASX

There is no translated TAF available for this airport

Find All Airport Services Find A Hotel Find A Rental Car Find A Golf Course Find A Restaurant $100 Hamburger



FBO's on the Field
FBO Company Facility Photos Services Transportation Aviation Fuel Prices: Prices include tax
Catering Weather Repair Courtesy Rental Type 100LL JetA JetA+ MOGAS 8087
 
John F Kennedy Memorial Airport

This FBO has not yet been rated
FS:Phillips66
Last Updated: Apr-07
Login to update fuel prices
SS:
Contact John F Kennedy Memorial AirportMore FBO Information
 
Add another FBO Facility Photos Catering Weather Repair Courtesy Rental Type 100LL JetA JetA+ MOGAS 8087
Services Transportation Aviation Fuel Prices: Prices include tax


GlobalAir.com Airport Resource Center model-print
model-print
model-print
model-print